Madras, Oregon
Current Conditions -  °F | °C
As of 11:15 PM on Friday 28 Nov 2014 (Local Time) from KS39 Reporting Station
Overcast Overcast  
Wind Chill: 35°   Ceiling: 3100
Heat Index: 43°   Visibility: 9mi
Dew Point: 39°   Wind: 16mph
Humidity: 87%   Direction: 220°SW
Pressure: 29.53"   Gusts: NA
Location:  44.63°N, 121.13°W
Report Text: KS39 290715Z AUTO 22014KT 9SM OVC031 06/04 A2953 RMK AO2
Loading
Personal Weather Stations






























Interactive Weather Map New forecast layout! Learn more

10-Day Weather Forecast

Advertisements
Track Severe Weather on mobile